Time;durP1;ratioP1;P1;durP2;ratioP2;P2;SDS_P1;SDS_P2;PMS_P1;PMS_P2;Temp;Humidity;BMP_temperature;BMP_pressure;BME280_temperature;BME280_humidity;BME280_pressure;Samples;Min_cycle;Max_cycle;Signal;HPM_P1;HPM_P2
2020/12/13 00:02:24;;;;;;;31.30;14.90;;;3.20;99.90;;;;;;5098184;28;20512;-59
2020/12/13 00:04:49;;;;;;;29.63;15.52;;;3.20;99.90;;;;;;5098366;28;20191;-58
2020/12/13 00:07:16;;;;;;;29.27;14.63;;;3.20;99.90;;;;;;5098436;28;20240;-58
2020/12/13 00:09:42;;;;;;;27.60;14.40;;;3.20;99.90;;;;;;5098277;28;20155;-59
2020/12/13 00:12:07;;;;;;;28.35;13.45;;;3.20;99.90;;;;;;5098105;28;20169;-58
2020/12/13 00:14:33;;;;;;;25.30;13.90;;;3.10;99.90;;;;;;5098025;28;20255;-58
2020/12/13 00:16:58;;;;;;;30.55;14.98;;;3.10;99.90;;;;;;5098114;28;20182;-58
2020/12/13 00:19:24;;;;;;;25.30;13.43;;;3.10;99.90;;;;;;5097961;28;20172;-58
2020/12/13 00:21:51;;;;;;;29.95;14.68;;;3.00;99.90;;;;;;5097824;28;20251;-58
2020/12/13 00:24:18;;;;;;;26.25;13.82;;;3.00;99.90;;;;;;5097808;28;20646;-58
2020/12/13 00:26:43;;;;;;;30.95;14.93;;;3.00;99.90;;;;;;5097953;28;20176;-59
2020/12/13 00:29:09;;;;;;;26.45;13.35;;;2.90;99.90;;;;;;5097710;28;20583;-59
2020/12/13 00:31:34;;;;;;;32.75;15.77;;;2.90;99.90;;;;;;5097595;28;20167;-58
2020/12/13 00:34:00;;;;;;;30.20;14.88;;;2.90;99.90;;;;;;5097977;28;20174;-58
2020/12/13 00:36:25;;;;;;;28.20;14.43;;;2.90;99.90;;;;;;5097690;28;20167;-59
2020/12/13 00:38:51;;;;;;;29.73;14.35;;;2.90;99.90;;;;;;5097512;28;20155;-59
2020/12/13 00:41:17;;;;;;;30.05;14.32;;;2.90;99.90;;;;;;5097662;28;20236;-58
2020/12/13 00:43:42;;;;;;;26.10;13.20;;;2.90;99.90;;;;;;5097461;28;20511;-58
2020/12/13 00:46:08;;;;;;;28.73;13.75;;;2.90;99.90;;;;;;5097236;28;20210;-58
2020/12/13 00:48:33;;;;;;;28.55;13.55;;;2.80;99.90;;;;;;5097506;28;20191;-58
2020/12/13 00:51:00;;;;;;;28.08;13.32;;;2.80;99.90;;;;;;5097555;28;20195;-58
2020/12/13 00:53:25;;;;;;;26.83;13.32;;;2.80;99.90;;;;;;5097228;28;20246;-59
2020/12/13 00:55:51;;;;;;;24.55;13.50;;;2.80;99.90;;;;;;5097224;28;20164;-59
2020/12/13 00:58:16;;;;;;;26.33;13.98;;;2.80;99.90;;;;;;5097284;28;20175;-59
2020/12/13 01:00:42;;;;;;;29.60;14.00;;;2.80;99.90;;;;;;5097399;28;20167;-59
2020/12/13 01:03:07;;;;;;;30.00;13.90;;;2.90;99.90;;;;;;5097219;28;20171;-58
2020/12/13 01:05:33;;;;;;;25.77;13.45;;;2.90;99.90;;;;;;5097385;28;20637;-59
2020/12/13 01:07:58;;;;;;;27.80;13.55;;;2.90;99.90;;;;;;5097323;28;20500;-59
2020/12/13 01:10:24;;;;;;;26.77;14.07;;;2.90;99.90;;;;;;5102534;28;20168;-58
2020/12/13 01:12:49;;;;;;;25.98;13.35;;;2.90;99.90;;;;;;5101830;28;20171;-58
2020/12/13 01:15:15;;;;;;;28.95;14.55;;;2.90;99.90;;;;;;5107078;28;20246;-58
2020/12/13 01:17:49;;;;;;;25.75;12.15;;;2.90;99.90;;;;;;5111109;28;20159;-58
2020/12/13 01:20:15;;;;;;;29.10;13.05;;;2.90;99.90;;;;;;5106323;28;20168;-58
2020/12/13 01:22:40;;;;;;;30.10;15.02;;;2.90;99.90;;;;;;5096474;28;20163;-58
2020/12/13 01:25:07;;;;;;;33.17;14.52;;;2.80;99.90;;;;;;5096446;28;20245;-58
2020/12/13 01:27:33;;;;;;;26.05;13.05;;;2.90;99.90;;;;;;5096461;28;20233;-58
2020/12/13 01:29:59;;;;;;;29.00;14.27;;;2.90;99.90;;;;;;5096473;28;20240;-58
2020/12/13 01:32:24;;;;;;;30.02;14.52;;;2.90;99.90;;;;;;5096363;28;20603;-58
2020/12/13 01:34:50;;;;;;;30.42;14.23;;;2.90;99.90;;;;;;5096890;28;20179;-58
2020/12/13 01:37:16;;;;;;;26.67;13.23;;;2.90;99.90;;;;;;5096239;28;20503;-58
2020/12/13 01:39:41;;;;;;;26.42;13.35;;;2.80;99.90;;;;;;5096556;28;20214;-58
2020/12/13 01:42:07;;;;;;;27.45;13.45;;;2.80;99.90;;;;;;5096129;28;20184;-58
2020/12/13 01:44:34;;;;;;;30.00;15.27;;;2.80;99.90;;;;;;5096078;28;20187;-58
2020/12/13 01:47:00;;;;;;;26.80;13.32;;;2.80;99.90;;;;;;5095927;28;20179;-58
2020/12/13 01:49:47;;;;;;;27.45;13.38;;;2.80;99.90;;;;;;5096247;28;20163;-58
2020/12/13 01:54:59;;;;;;;26.63;12.57;;;2.90;99.90;;;;;;5096712;28;20237;-58
2020/12/13 01:57:24;;;;;;;28.98;13.95;;;2.90;99.90;;;;;;5095210;28;20156;-58
2020/12/13 01:59:51;;;;;;;25.73;12.68;;;2.90;99.90;;;;;;5094965;28;20179;-58
2020/12/13 02:02:21;;;;;;;25.40;13.18;;;2.90;99.90;;;;;;5096011;28;20171;-58
2020/12/13 02:04:48;;;;;;;23.75;13.02;;;2.90;99.90;;;;;;5094865;28;20195;-58
2020/12/13 02:07:15;;;;;;;27.98;14.05;;;2.80;99.90;;;;;;5094754;28;20167;-57
2020/12/13 02:09:41;;;;;;;27.70;13.13;;;2.80;99.90;;;;;;5095679;28;20167;-58
2020/12/13 02:12:06;;;;;;;28.60;13.55;;;2.80;99.90;;;;;;5095855;28;20488;-58
2020/12/13 02:14:32;;;;;;;27.02;13.10;;;2.80;99.90;;;;;;5095554;28;20166;-58
2020/12/13 02:16:58;;;;;;;28.42;13.50;;;2.70;99.90;;;;;;5095570;28;20171;-58
2020/12/13 02:19:23;;;;;;;29.65;15.00;;;2.70;99.90;;;;;;5094818;28;20562;-58
2020/12/13 02:21:50;;;;;;;29.33;14.20;;;2.70;99.90;;;;;;5095468;28;20163;-58
2020/12/13 02:24:16;;;;;;;28.73;14.52;;;2.70;99.90;;;;;;5095354;28;20229;-58
2020/12/13 02:26:43;;;;;;;28.58;14.55;;;2.70;99.90;;;;;;5095336;28;20493;-58
2020/12/13 02:29:09;;;;;;;27.40;14.13;;;2.80;99.90;;;;;;5095347;28;20179;-58
2020/12/13 02:31:35;;;;;;;28.60;13.93;;;2.80;99.90;;;;;;5095873;28;20160;-58
2020/12/13 02:34:02;;;;;;;27.63;13.63;;;2.80;99.90;;;;;;5094669;28;20178;-59
2020/12/13 02:36:28;;;;;;;29.30;14.63;;;2.80;99.90;;;;;;5095906;28;20179;-58
2020/12/13 02:38:54;;;;;;;28.17;13.15;;;2.80;99.90;;;;;;5095248;28;20160;-58
2020/12/13 02:41:19;;;;;;;25.73;13.80;;;2.80;99.90;;;;;;5094554;28;20164;-58
2020/12/13 02:43:45;;;;;;;25.98;13.57;;;2.80;99.90;;;;;;5095306;28;20167;-58
2020/12/13 02:46:10;;;;;;;24.20;12.85;;;2.80;99.90;;;;;;5094914;28;20203;-58
2020/12/13 02:48:35;;;;;;;23.58;12.20;;;2.80;99.90;;;;;;5094991;28;20174;-59
2020/12/13 02:51:01;;;;;;;25.02;12.93;;;2.80;99.90;;;;;;5094973;28;20163;-59
2020/12/13 02:53:26;;;;;;;24.20;12.05;;;2.80;99.90;;;;;;5094945;28;20570;-58
2020/12/13 02:55:52;;;;;;;24.95;12.70;;;2.70;99.90;;;;;;5094957;28;20249;-58
2020/12/13 02:58:17;;;;;;;25.55;13.45;;;2.70;99.90;;;;;;5095073;28;20167;-58
2020/12/13 03:00:43;;;;;;;23.10;12.27;;;2.70;99.90;;;;;;5094919;28;20504;-58
2020/12/13 03:03:08;;;;;;;28.92;14.18;;;2.70;99.90;;;;;;5094730;28;20163;-59
2020/12/13 03:05:34;;;;;;;26.73;13.95;;;2.70;99.90;;;;;;5095602;28;20199;-59
2020/12/13 03:07:59;;;;;;;26.15;13.80;;;2.70;99.90;;;;;;5094678;28;20521;-59
2020/12/13 03:10:25;;;;;;;29.75;13.25;;;2.70;99.90;;;;;;5093854;28;20225;-58
2020/12/13 03:12:50;;;;;;;26.13;13.68;;;2.70;99.90;;;;;;5095000;28;20163;-59
2020/12/13 03:15:16;;;;;;;28.52;13.88;;;2.70;99.90;;;;;;5094964;28;20170;-58
2020/12/13 03:17:41;;;;;;;25.27;13.50;;;2.70;99.90;;;;;;5095005;28;20526;-58
2020/12/13 03:20:07;;;;;;;25.63;12.23;;;2.80;99.90;;;;;;5094861;28;20494;-58
2020/12/13 03:22:33;;;;;;;27.23;12.40;;;2.80;99.90;;;;;;5095306;28;20234;-58
2020/12/13 03:24:58;;;;;;;27.42;12.70;;;2.80;99.90;;;;;;5094534;28;20195;-58
2020/12/13 03:27:25;;;;;;;26.35;13.18;;;2.80;99.90;;;;;;5094644;28;20595;-58
2020/12/13 03:29:51;;;;;;;28.70;13.63;;;2.80;99.90;;;;;;5096525;28;20175;-58
2020/12/13 03:32:16;;;;;;;28.10;13.05;;;2.80;99.90;;;;;;5099044;28;20159;-58
2020/12/13 03:34:42;;;;;;;28.60;13.38;;;2.80;99.90;;;;;;5098814;28;20499;-58
2020/12/13 03:37:07;;;;;;;26.30;12.75;;;2.80;99.90;;;;;;5099095;28;20172;-58
2020/12/13 03:39:33;;;;;;;27.52;13.68;;;2.80;99.90;;;;;;5098495;28;20600;-59
2020/12/13 03:41:58;;;;;;;31.85;14.27;;;2.90;99.90;;;;;;5099094;28;20171;-59
2020/12/13 03:44:24;;;;;;;24.02;12.48;;;2.90;99.90;;;;;;5098668;28;20243;-58
2020/12/13 03:46:49;;;;;;;28.67;13.23;;;2.90;99.90;;;;;;5098367;28;20534;-59
2020/12/13 03:49:15;;;;;;;27.90;12.90;;;2.90;99.90;;;;;;5098382;28;20175;-58
2020/12/13 03:51:40;;;;;;;26.25;12.30;;;2.80;99.90;;;;;;5098382;28;20171;-58
2020/12/13 03:54:06;;;;;;;26.45;13.05;;;2.80;99.90;;;;;;5098213;28;20168;-58
2020/12/13 03:56:31;;;;;;;28.05;12.73;;;2.80;99.90;;;;;;5098556;28;20242;-59
2020/12/13 03:58:57;;;;;;;25.77;12.95;;;2.90;99.90;;;;;;5098159;28;20592;-58
2020/12/13 04:01:22;;;;;;;26.02;14.05;;;2.90;99.90;;;;;;5098436;28;20499;-58
2020/12/13 04:03:48;;;;;;;25.63;13.55;;;2.90;99.90;;;;;;5098009;28;20482;-58
2020/12/13 04:06:13;;;;;;;28.25;13.02;;;2.90;99.90;;;;;;5098294;28;20183;-58
2020/12/13 04:08:39;;;;;;;25.63;12.60;;;2.90;99.90;;;;;;5097930;28;20160;-58
2020/12/13 04:11:04;;;;;;;23.63;12.63;;;2.90;99.90;;;;;;5098518;28;20164;-59
2020/12/13 04:13:30;;;;;;;28.65;13.07;;;2.90;99.90;;;;;;5098111;28;20454;-58
2020/12/13 04:15:56;;;;;;;28.33;13.43;;;2.90;99.90;;;;;;5098149;28;20176;-58
2020/12/13 04:18:21;;;;;;;27.23;12.13;;;2.90;99.90;;;;;;5098102;28;20178;-58
2020/12/13 04:20:47;;;;;;;25.50;13.48;;;2.90;99.90;;;;;;5097757;28;20164;-58
2020/12/13 04:23:12;;;;;;;27.48;12.90;;;2.90;99.90;;;;;;5097782;28;20197;-58
2020/12/13 04:25:38;;;;;;;28.35;13.50;;;2.90;99.90;;;;;;5097580;28;20187;-58
2020/12/13 04:28:03;;;;;;;29.40;13.75;;;2.90;99.90;;;;;;5097672;28;20160;-58
2020/12/13 04:30:29;;;;;;;28.98;12.88;;;2.90;99.90;;;;;;5097805;28;20178;-58
2020/12/13 04:32:54;;;;;;;28.23;13.25;;;2.90;99.90;;;;;;5097584;28;20213;-58
2020/12/13 04:35:20;;;;;;;26.27;13.13;;;2.90;99.90;;;;;;5097452;28;20497;-58
2020/12/13 04:37:45;;;;;;;27.42;12.85;;;3.00;99.90;;;;;;5097779;28;20542;-58
2020/12/13 04:40:11;;;;;;;27.05;13.02;;;3.00;99.90;;;;;;5097246;28;20607;-58
2020/12/13 04:42:37;;;;;;;26.98;12.82;;;3.00;99.90;;;;;;5096406;28;20229;-58
2020/12/13 04:45:05;;;;;;;23.40;12.55;;;3.00;99.90;;;;;;5097272;28;20710;-58
2020/12/13 04:47:32;;;;;;;23.95;12.52;;;3.00;99.90;;;;;;5098133;28;20587;-59
2020/12/13 04:50:01;;;;;;;27.77;12.93;;;2.90;99.90;;;;;;5097301;28;20629;-58
2020/12/13 04:52:27;;;;;;;26.27;13.10;;;2.90;99.90;;;;;;5097286;28;20170;-58
2020/12/13 04:54:52;;;;;;;31.33;14.40;;;2.90;99.90;;;;;;5096192;28;20171;-59
2020/12/13 04:57:19;;;;;;;27.75;13.57;;;2.90;99.90;;;;;;5097373;28;20583;-59
2020/12/13 04:59:48;;;;;;;25.08;12.98;;;2.90;99.90;;;;;;5097048;28;20168;-58
2020/12/13 05:02:14;;;;;;;30.15;14.43;;;3.00;99.90;;;;;;5096967;28;20627;-59
2020/12/13 05:04:41;;;;;;;25.77;12.80;;;3.00;99.90;;;;;;5097117;28;20569;-58
2020/12/13 05:07:06;;;;;;;27.30;12.85;;;3.00;99.90;;;;;;5097267;28;20205;-58
2020/12/13 05:09:32;;;;;;;26.85;13.02;;;3.00;99.90;;;;;;5096810;28;20163;-58
2020/12/13 05:11:58;;;;;;;29.17;13.88;;;3.00;99.90;;;;;;5097107;28;20170;-58
2020/12/13 05:14:23;;;;;;;26.98;13.82;;;3.00;99.90;;;;;;5096874;28;20175;-58
2020/12/13 05:16:49;;;;;;;31.67;14.52;;;3.00;99.90;;;;;;5097669;28;20174;-58
2020/12/13 05:19:14;;;;;;;28.52;14.10;;;3.00;99.90;;;;;;5096963;28;20567;-58
2020/12/13 05:21:42;;;;;;;29.55;14.02;;;3.00;99.90;;;;;;5096816;28;20193;-59
2020/12/13 05:24:07;;;;;;;30.98;14.55;;;2.90;99.90;;;;;;5097151;28;20159;-58
2020/12/13 05:26:33;;;;;;;30.88;14.70;;;2.90;99.90;;;;;;5097411;28;20177;-59
2020/12/13 05:29:01;;;;;;;34.55;15.38;;;3.00;99.90;;;;;;5097172;28;20183;-62
2020/12/13 05:31:29;;;;;;;31.02;14.45;;;3.00;99.90;;;;;;5100842;28;20186;-58
2020/12/13 05:34:07;;;;;;;31.92;14.93;;;3.00;99.90;;;;;;5111834;28;20484;-58
2020/12/13 05:36:38;;;;;;;27.45;12.88;;;3.00;99.90;;;;;;5110589;28;20175;-58
2020/12/13 05:39:04;;;;;;;24.88;14.02;;;3.00;99.90;;;;;;5097603;28;20273;-58
2020/12/13 05:41:32;;;;;;;28.27;14.23;;;3.00;99.90;;;;;;5096473;28;20603;-58
2020/12/13 05:46:54;;;;;;;29.55;14.57;;;3.00;99.90;;;;;;5095974;28;20245;-59
2020/12/13 05:52:03;;;;;;;29.30;14.85;;;3.00;99.90;;;;;;5096238;28;20209;-59
2020/12/13 05:54:29;;;;;;;30.10;14.40;;;3.00;99.90;;;;;;5097034;28;20168;-59
2020/12/13 05:57:00;;;;;;;26.20;13.82;;;3.00;99.90;;;;;;5095895;28;20581;-58
2020/12/13 05:59:27;;;;;;;27.52;14.13;;;2.90;99.90;;;;;;5096260;28;20162;-58
2020/12/13 06:01:54;;;;;;;30.95;14.60;;;2.90;99.90;;;;;;5095845;28;20197;-58
2020/12/13 06:04:25;;;;;;;27.55;13.50;;;2.90;99.90;;;;;;5096001;28;20168;-58
2020/12/13 06:06:57;;;;;;;28.88;13.57;;;3.00;99.90;;;;;;5095826;28;20176;-58
2020/12/13 06:09:40;;;;;;;30.90;14.68;;;2.90;99.90;;;;;;5096062;28;20167;-57
2020/12/13 06:12:10;;;;;;;28.60;12.77;;;2.90;99.90;;;;;;5095702;28;20148;-57
2020/12/13 06:14:41;;;;;;;28.77;14.25;;;2.90;99.90;;;;;;5095933;28;20171;-57
2020/12/13 06:17:07;;;;;;;28.45;13.68;;;2.90;99.90;;;;;;5095840;28;20491;-57
2020/12/13 06:19:34;;;;;;;30.75;14.95;;;2.90;99.90;;;;;;5095846;28;20228;-57
2020/12/13 06:22:02;;;;;;;30.10;14.25;;;2.90;99.90;;;;;;5094615;28;20183;-58
2020/12/13 06:24:28;;;;;;;34.40;15.13;;;2.90;99.90;;;;;;5095727;28;20282;-57
2020/12/13 06:26:55;;;;;;;33.30;14.50;;;2.90;99.90;;;;;;5095313;28;20556;-58
2020/12/13 06:29:24;;;;;;;29.17;13.52;;;2.90;99.90;;;;;;5095400;28;20258;-58
2020/12/13 06:31:51;;;;;;;27.48;14.05;;;2.90;99.90;;;;;;5095285;28;20255;-58
2020/12/13 06:34:17;;;;;;;27.15;13.80;;;2.90;99.90;;;;;;5095568;28;20168;-58
2020/12/13 06:36:43;;;;;;;27.45;13.10;;;2.80;99.90;;;;;;5095366;28;20164;-58
2020/12/13 06:39:17;;;;;;;26.73;13.73;;;2.80;99.90;;;;;;5095199;28;20623;-58
2020/12/13 06:41:48;;;;;;;28.85;13.98;;;2.80;99.90;;;;;;5095304;28;20155;-58
2020/12/13 06:44:14;;;;;;;28.20;14.13;;;2.80;99.90;;;;;;5095449;28;20163;-58
2020/12/13 06:46:42;;;;;;;28.27;13.73;;;2.80;99.90;;;;;;5094946;28;20678;-58
2020/12/13 06:49:17;;;;;;;27.92;13.32;;;2.80;99.90;;;;;;5095104;28;20620;-58
2020/12/13 06:51:44;;;;;;;26.92;13.30;;;2.90;99.90;;;;;;5095084;28;20159;-58
2020/12/13 06:54:12;;;;;;;29.95;15.40;;;2.80;99.90;;;;;;5095030;28;20155;-58
2020/12/13 06:56:38;;;;;;;28.05;14.30;;;2.90;99.90;;;;;;5095186;28;20182;-58
2020/12/13 06:59:06;;;;;;;25.90;13.48;;;2.90;99.90;;;;;;5095309;28;20183;-58
2020/12/13 07:01:39;;;;;;;32.47;14.90;;;2.90;99.90;;;;;;5095114;28;20171;-58
2020/12/13 07:04:43;;;;;;;33.10;15.82;;;2.80;99.90;;;;;;5094606;28;20156;-58
2020/12/13 07:07:15;;;;;;;27.05;14.38;;;2.80;99.90;;;;;;5095171;28;20166;-58
2020/12/13 07:09:41;;;;;;;29.70;14.35;;;2.80;99.90;;;;;;5095211;28;20148;-58
2020/12/13 07:12:07;;;;;;;29.88;14.63;;;2.80;99.90;;;;;;5094764;28;20241;-58
2020/12/13 07:14:35;;;;;;;32.70;13.60;;;2.80;99.90;;;;;;5093971;28;20167;-58
2020/12/13 07:17:04;;;;;;;33.90;14.43;;;2.80;99.90;;;;;;5094792;28;20163;-58
2020/12/13 07:19:34;;;;;;;29.88;13.95;;;2.80;99.90;;;;;;5095009;28;20528;-58
2020/12/13 07:22:05;;;;;;;31.42;14.30;;;2.80;99.90;;;;;;5094965;28;20162;-58
2020/12/13 07:24:31;;;;;;;29.15;14.52;;;2.80;99.90;;;;;;5094614;28;20627;-58
2020/12/13 07:26:58;;;;;;;32.58;14.88;;;2.90;99.90;;;;;;5094553;28;20220;-58
2020/12/13 07:29:23;;;;;;;30.20;15.25;;;2.90;99.90;;;;;;5094655;28;20175;-58
2020/12/13 07:31:49;;;;;;;28.65;13.80;;;2.80;99.90;;;;;;5094522;28;20163;-58
2020/12/13 07:34:14;;;;;;;30.88;13.88;;;2.80;99.90;;;;;;5094589;28;20159;-58
2020/12/13 07:36:41;;;;;;;30.30;14.27;;;2.80;99.90;;;;;;5094490;28;20214;-58
2020/12/13 07:39:08;;;;;;;31.40;14.63;;;2.80;99.90;;;;;;5094830;28;20217;-58
2020/12/13 07:41:34;;;;;;;28.30;15.27;;;2.90;99.90;;;;;;5094765;28;20206;-58
2020/12/13 07:44:02;;;;;;;29.25;13.75;;;2.90;99.90;;;;;;5094593;28;20218;-58
2020/12/13 07:46:30;;;;;;;32.50;15.32;;;2.90;99.90;;;;;;5094243;28;20612;-58
2020/12/13 07:49:08;;;;;;;31.77;15.27;;;2.90;99.90;;;;;;5094808;28;20171;-58
2020/12/13 07:51:35;;;;;;;30.30;14.20;;;2.90;99.90;;;;;;5094392;28;20161;-58
2020/12/13 07:54:21;;;;;;;29.10;13.95;;;2.90;99.90;;;;;;5094761;28;20172;-58
2020/12/13 07:56:49;;;;;;;27.42;13.73;;;2.90;99.90;;;;;;5093816;28;20167;-58
2020/12/13 07:59:17;;;;;;;29.05;14.02;;;2.90;99.90;;;;;;5094687;28;20196;-58
2020/12/13 08:01:44;;;;;;;33.20;14.70;;;2.90;99.90;;;;;;5094572;28;20253;-58
2020/12/13 08:04:11;;;;;;;26.73;13.07;;;2.90;99.90;;;;;;5094266;28;20156;-58
2020/12/13 08:06:36;;;;;;;31.27;15.75;;;2.90;99.90;;;;;;5094315;28;20160;-58
2020/12/13 08:09:10;;;;;;;28.38;13.82;;;2.90;99.90;;;;;;5094254;28;20166;-58
2020/12/13 08:11:35;;;;;;;29.58;13.40;;;2.80;99.90;;;;;;5094289;28;20672;-58
2020/12/13 08:14:03;;;;;;;27.10;13.45;;;2.80;99.90;;;;;;5094553;28;20199;-58
2020/12/13 08:16:29;;;;;;;33.70;14.32;;;2.70;99.90;;;;;;5096644;28;20179;-58
2020/12/13 08:19:01;;;;;;;33.05;14.35;;;2.70;99.90;;;;;;5098190;28;20168;-58
2020/12/13 08:22:01;;;;;;;29.15;14.95;;;2.80;99.90;;;;;;5097023;28;20217;-58
2020/12/13 08:24:28;;;;;;;29.45;13.95;;;2.80;99.90;;;;;;5098133;28;20209;-58
2020/12/13 08:26:59;;;;;;;27.25;13.77;;;2.80;99.90;;;;;;5097185;28;20178;-58
2020/12/13 08:29:25;;;;;;;32.30;14.98;;;2.80;99.90;;;;;;5097868;28;20201;-58
2020/12/13 08:31:51;;;;;;;28.42;13.52;;;2.90;99.90;;;;;;5096840;28;20174;-58
2020/12/13 08:34:23;;;;;;;28.42;14.77;;;2.90;99.90;;;;;;5098216;28;20172;-58
2020/12/13 08:36:57;;;;;;;29.55;14.77;;;2.90;99.90;;;;;;5097853;28;20156;-58
2020/12/13 08:39:30;;;;;;;30.30;14.85;;;2.90;99.90;;;;;;5097627;28;20174;-58
2020/12/13 08:41:57;;;;;;;30.90;15.25;;;2.90;99.90;;;;;;5097559;28;20167;-58
2020/12/13 08:44:27;;;;;;;30.15;14.23;;;2.90;99.90;;;;;;5097406;28;20195;-58
2020/12/13 08:46:54;;;;;;;30.25;14.77;;;2.90;99.90;;;;;;5097417;28;20278;-58
2020/12/13 08:49:30;;;;;;;30.52;15.38;;;2.80;99.90;;;;;;5096913;28;20159;-58
2020/12/13 08:51:56;;;;;;;29.98;15.10;;;2.90;99.90;;;;;;5097626;28;20152;-60
2020/12/13 08:54:22;;;;;;;33.70;15.45;;;2.90;99.90;;;;;;5097453;28;20548;-59
2020/12/13 08:56:52;;;;;;;30.63;14.77;;;3.00;99.90;;;;;;5097252;28;20159;-58
2020/12/13 08:59:19;;;;;;;31.33;14.73;;;3.00;99.90;;;;;;5097546;28;20155;-58
2020/12/13 09:01:52;;;;;;;32.97;15.05;;;3.00;99.90;;;;;;5097436;28;20167;-58
2020/12/13 09:04:23;;;;;;;32.95;15.02;;;3.00;99.90;;;;;;5097363;28;20159;-58
2020/12/13 09:06:53;;;;;;;27.55;14.52;;;3.00;99.90;;;;;;5097448;28;20163;-59
2020/12/13 09:09:19;;;;;;;29.35;14.07;;;3.10;99.90;;;;;;5097705;28;20207;-58
2020/12/13 09:11:45;;;;;;;29.58;14.75;;;3.20;99.90;;;;;;5097310;28;20160;-57
2020/12/13 09:14:11;;;;;;;31.42;14.35;;;3.20;99.90;;;;;;5096922;28;20179;-57
2020/12/13 09:16:36;;;;;;;30.83;14.48;;;3.20;99.90;;;;;;5097215;28;20167;-59
2020/12/13 09:19:03;;;;;;;26.27;12.73;;;3.20;99.90;;;;;;5098093;28;20181;-58
2020/12/13 09:21:45;;;;;;;28.40;13.82;;;3.20;99.90;;;;;;5099182;28;20626;-56
2020/12/13 09:24:11;;;;;;;29.80;14.13;;;3.20;99.90;;;;;;5099362;28;20169;-57
2020/12/13 09:26:37;;;;;;;32.72;14.57;;;3.20;99.90;;;;;;5104222;28;20171;-57
2020/12/13 09:29:03;;;;;;;30.10;13.68;;;3.20;99.90;;;;;;5102673;28;20167;-57
2020/12/13 09:31:28;;;;;;;34.42;15.13;;;3.20;99.90;;;;;;5110318;28;20302;-57
2020/12/13 09:33:54;;;;;;;29.45;13.25;;;3.20;99.90;;;;;;5108103;28;20156;-57
2020/12/13 09:36:19;;;;;;;30.33;14.00;;;3.20;99.90;;;;;;5097141;28;20219;-58
2020/12/13 09:38:45;;;;;;;29.17;14.27;;;3.20;99.90;;;;;;5096469;28;20167;-58
2020/12/13 09:41:17;;;;;;;31.05;15.45;;;3.20;99.90;;;;;;5096742;28;20175;-58
2020/12/13 09:43:42;;;;;;;32.33;14.65;;;3.20;99.90;;;;;;5096649;28;20229;-59
2020/12/13 09:46:08;;;;;;;29.50;14.98;;;3.10;99.90;;;;;;5096202;28;20639;-58
2020/12/13 09:48:33;;;;;;;29.42;15.15;;;3.10;99.90;;;;;;5096320;28;20253;-59
2020/12/13 09:50:59;;;;;;;32.15;15.52;;;3.10;99.90;;;;;;5096530;28;20170;-58
2020/12/13 09:53:24;;;;;;;33.72;14.63;;;3.10;99.90;;;;;;5096176;28;20171;-58
2020/12/13 09:55:50;;;;;;;28.92;13.63;;;3.10;99.90;;;;;;5096240;28;20171;-58
2020/12/13 09:58:15;;;;;;;29.45;14.23;;;3.10;99.90;;;;;;5095960;28;20179;-58
2020/12/13 10:00:41;;;;;;;30.13;14.15;;;3.10;99.90;;;;;;5095977;28;20167;-58
2020/12/13 10:03:07;;;;;;;29.40;14.20;;;3.10;99.90;;;;;;5096069;28;20615;-58
2020/12/13 10:05:41;;;;;;;29.80;14.45;;;3.10;99.90;;;;;;5095063;28;20505;-58
2020/12/13 10:10:51;;;;;;;29.42;15.05;;;3.20;99.90;;;;;;5096078;28;20226;-58
2020/12/13 10:13:16;;;;;;;30.85;14.75;;;3.20;99.90;;;;;;5095672;28;20198;-59
2020/12/13 10:15:42;;;;;;;33.10;14.40;;;3.20;99.90;;;;;;5095574;28;20229;-58
2020/12/13 10:18:07;;;;;;;30.98;15.30;;;3.30;99.90;;;;;;5095493;28;20179;-58
2020/12/13 10:20:39;;;;;;;30.13;14.82;;;3.30;99.90;;;;;;5095912;28;20168;-58
2020/12/13 10:23:04;;;;;;;31.92;15.57;;;3.30;99.90;;;;;;5095715;28;20598;-58
2020/12/13 10:25:30;;;;;;;35.25;16.58;;;3.30;99.90;;;;;;5095441;28;20191;-58
2020/12/13 10:27:55;;;;;;;34.38;16.65;;;3.30;99.90;;;;;;5095459;28;20224;-58
2020/12/13 10:30:21;;;;;;;28.05;14.07;;;3.40;99.90;;;;;;5095424;28;20163;-58
2020/12/13 10:32:46;;;;;;;32.28;14.68;;;3.40;99.90;;;;;;5095214;28;20282;-58
2020/12/13 10:35:12;;;;;;;34.03;14.57;;;3.40;99.90;;;;;;5095247;28;20182;-58
2020/12/13 10:37:37;;;;;;;28.45;14.35;;;3.50;99.90;;;;;;5095370;28;20182;-58
2020/12/13 10:40:03;;;;;;;33.40;15.00;;;3.50;99.90;;;;;;5094281;28;20175;-59
2020/12/13 10:42:28;;;;;;;32.03;15.55;;;3.50;99.90;;;;;;5095222;28;20222;-58
2020/12/13 10:44:54;;;;;;;28.15;14.43;;;3.50;99.90;;;;;;5095379;28;20191;-58
2020/12/13 10:47:19;;;;;;;30.52;14.75;;;3.50;99.90;;;;;;5095257;28;20148;-58
2020/12/13 10:49:45;;;;;;;30.77;15.25;;;3.50;99.90;;;;;;5094144;28;20163;-58
2020/12/13 10:52:10;;;;;;;28.35;14.13;;;3.60;99.90;;;;;;5095207;28;20607;-58
2020/12/13 10:54:35;;;;;;;34.20;14.85;;;3.60;99.90;;;;;;5094864;28;20164;-58
2020/12/13 10:57:01;;;;;;;28.73;14.07;;;3.60;99.90;;;;;;5094935;28;20224;-58
2020/12/13 10:59:26;;;;;;;28.92;14.85;;;3.60;99.90;;;;;;5094978;28;20183;-58
2020/12/13 11:01:52;;;;;;;30.42;15.05;;;3.60;99.90;;;;;;5094871;28;20172;-58
2020/12/13 11:04:18;;;;;;;29.38;14.27;;;3.70;99.90;;;;;;5094961;28;20178;-58
2020/12/13 11:06:48;;;;;;;31.63;15.00;;;3.60;99.90;;;;;;5095083;28;20164;-58
2020/12/13 11:09:14;;;;;;;30.15;14.43;;;3.70;99.90;;;;;;5094733;28;20619;-58
2020/12/13 11:11:39;;;;;;;30.95;15.20;;;3.70;99.90;;;;;;5094706;28;20230;-58
2020/12/13 11:14:05;;;;;;;29.85;14.93;;;3.70;99.90;;;;;;5094799;28;20224;-58
2020/12/13 11:16:30;;;;;;;26.55;14.65;;;3.70;99.90;;;;;;5095070;28;20163;-58
2020/12/13 11:18:56;;;;;;;29.65;14.90;;;3.80;99.90;;;;;;5094679;28;20175;-58
2020/12/13 11:21:21;;;;;;;34.50;16.45;;;3.80;99.90;;;;;;5095265;28;20662;-58
2020/12/13 11:23:47;;;;;;;32.33;15.18;;;3.80;99.90;;;;;;5094800;28;20182;-58
2020/12/13 11:26:12;;;;;;;30.90;14.50;;;3.80;99.90;;;;;;5095086;28;20223;-58
2020/12/13 11:28:38;;;;;;;31.08;15.60;;;3.90;99.90;;;;;;5094463;28;20170;-58
2020/12/13 11:31:03;;;;;;;28.75;13.07;;;3.80;99.90;;;;;;5094596;28;20501;-58
2020/12/13 11:33:29;;;;;;;27.50;14.57;;;3.80;99.90;;;;;;5094979;28;20171;-58
2020/12/13 11:35:54;;;;;;;30.30;14.00;;;3.70;99.90;;;;;;5094658;28;20163;-58
2020/12/13 11:38:20;;;;;;;28.48;14.52;;;3.70;99.90;;;;;;5095565;28;20228;-58
2020/12/13 11:40:45;;;;;;;28.00;14.63;;;3.70;99.90;;;;;;5095394;28;20492;-58
2020/12/13 11:43:11;;;;;;;27.05;14.00;;;3.70;99.90;;;;;;5094761;28;20507;-58
2020/12/13 11:45:36;;;;;;;26.73;13.27;;;3.70;99.90;;;;;;5094250;28;20271;-58
2020/12/13 11:48:02;;;;;;;28.98;14.98;;;3.70;99.90;;;;;;5094472;28;20175;-58
2020/12/13 11:50:28;;;;;;;26.55;13.98;;;3.70;99.90;;;;;;5095787;28;20167;-58
2020/12/13 11:52:54;;;;;;;28.90;14.20;;;3.70;99.90;;;;;;5098678;28;20168;-58
2020/12/13 11:55:19;;;;;;;24.75;13.27;;;3.70;99.90;;;;;;5098322;28;20220;-58
2020/12/13 11:57:45;;;;;;;27.23;13.30;;;3.70;99.90;;;;;;5098249;28;20171;-58
2020/12/13 12:00:11;;;;;;;27.08;14.10;;;3.70;99.90;;;;;;5098503;28;20588;-58
2020/12/13 12:02:36;;;;;;;25.15;13.43;;;3.70;99.90;;;;;;5098220;28;20180;-58
2020/12/13 12:05:02;;;;;;;26.92;13.75;;;3.60;99.90;;;;;;5098220;28;20191;-58
2020/12/13 12:07:27;;;;;;;26.63;13.38;;;3.60;99.90;;;;;;5098605;28;20170;-58
2020/12/13 12:09:53;;;;;;;26.83;13.85;;;3.60;99.90;;;;;;5098339;28;20160;-58
2020/12/13 12:12:18;;;;;;;27.38;14.45;;;3.60;99.90;;;;;;5097069;28;20164;-58
2020/12/13 12:14:44;;;;;;;26.50;14.73;;;3.60;99.90;;;;;;5097944;28;20224;-58
2020/12/13 12:17:09;;;;;;;25.23;14.10;;;3.60;99.90;;;;;;5098254;28;20190;-58
2020/12/13 12:19:38;;;;;;;27.30;14.07;;;3.60;99.90;;;;;;5097784;28;20497;-58
2020/12/13 12:22:04;;;;;;;28.05;14.32;;;3.70;99.90;;;;;;5098124;28;20225;-58
2020/12/13 12:24:29;;;;;;;29.45;15.30;;;3.70;99.90;;;;;;5097984;28;20164;-58
2020/12/13 12:26:55;;;;;;;26.20;14.07;;;3.70;99.90;;;;;;5098052;28;20588;-58
2020/12/13 12:29:21;;;;;;;31.73;16.15;;;3.70;99.90;;;;;;5097835;28;20168;-57
2020/12/13 12:31:47;;;;;;;28.35;14.90;;;3.70;99.90;;;;;;5097981;28;20171;-58
2020/12/13 12:34:13;;;;;;;27.40;14.40;;;3.70;99.90;;;;;;5097742;28;20222;-57
2020/12/13 12:36:39;;;;;;;28.60;14.38;;;3.70;99.90;;;;;;5096746;28;20558;-58
2020/12/13 12:39:05;;;;;;;30.33;14.77;;;3.70;99.90;;;;;;5097885;28;20171;-58
2020/12/13 12:41:31;;;;;;;28.08;14.60;;;3.70;99.90;;;;;;5097752;28;20171;-58
2020/12/13 12:43:56;;;;;;;28.38;15.55;;;3.70;99.90;;;;;;5079550;28;20219;-58
2020/12/13 12:46:22;;;;;;;26.25;14.18;;;3.70;99.90;;;;;;5097138;28;20213;-57